Time;durP1;ratioP1;P1;durP2;ratioP2;P2;SDS_P1;SDS_P2;PMS_P1;PMS_P2;Temp;Humidity;BMP_temperature;BMP_pressure;BME280_temperature;BME280_humidity;BME280_pressure;Samples;Min_cycle;Max_cycle;Signal;HPM_P1;HPM_P2
2022/08/18 00:00:12;;;;;;;48.50;30.10;;;;;;;;;;6150871;28;20051;-71
2022/08/18 00:03:13;;;;;;;38.17;29.52;;;;;;;;;;6146846;28;20123;-70
2022/08/18 00:06:15;;;;;;;39.22;30.98;;;;;;;;;;6149123;28;20861;-70
2022/08/18 00:09:17;;;;;;;41.17;30.35;;;;;;;;;;6152050;28;20047;-69
2022/08/18 00:12:23;;;;;;;44.35;30.52;;;;;;;;;;6150717;28;20058;-70
2022/08/18 00:15:26;;;;;;;41.67;29.75;;;;;;;;;;6149169;28;20063;-69
2022/08/18 00:18:27;;;;;;;39.35;30.20;;;;;;;;;;6144943;28;20063;-70
2022/08/18 00:21:29;;;;;;;40.05;29.15;;;;;;;;;;6151117;28;20062;-70
2022/08/18 00:24:31;;;;;;;33.92;27.20;;;;;;;;;;6146655;28;20051;-70
2022/08/18 00:27:33;;;;;;;38.08;28.17;;;;;;;;;;6144357;28;20315;-70
2022/08/18 00:30:36;;;;;;;34.38;26.60;;;;;;;;;;6148001;28;20113;-70
2022/08/18 00:33:37;;;;;;;36.22;26.00;;;;;;;;;;6147298;28;20082;-69
2022/08/18 00:36:39;;;;;;;38.47;26.15;;;;;;;;;;6145536;28;20126;-71
2022/08/18 00:39:41;;;;;;;34.47;25.33;;;;;;;;;;6149142;28;20322;-70
2022/08/18 00:42:45;;;;;;;33.22;25.20;;;;;;;;;;6147615;28;20055;-70
2022/08/18 00:45:48;;;;;;;33.90;26.15;;;;;;;;;;6147948;28;20051;-70
2022/08/18 00:48:49;;;;;;;35.90;25.88;;;;;;;;;;6147230;28;20044;-69
2022/08/18 00:51:52;;;;;;;31.85;24.83;;;;;;;;;;6149874;28;20234;-70
2022/08/18 00:54:54;;;;;;;33.85;25.13;;;;;;;;;;6149802;28;20074;-70
2022/08/18 00:58:01;;;;;;;33.78;25.40;;;;;;;;;;6150676;28;20055;-70
2022/08/18 01:01:06;;;;;;;34.95;24.10;;;;;;;;;;6145552;28;20055;-71
2022/08/18 01:04:10;;;;;;;30.52;24.00;;;;;;;;;;6150995;28;20063;-72
2022/08/18 01:07:16;;;;;;;34.20;23.52;;;;;;;;;;6149387;28;20055;-70
2022/08/18 01:10:21;;;;;;;28.63;21.80;;;;;;;;;;6153275;28;20285;-70
2022/08/18 01:13:26;;;;;;;27.92;20.25;;;;;;;;;;6156059;28;20980;-71
2022/08/18 01:23:23;;;;;;;22.27;15.15;;;;;;;;;;6098841;29;20050;-71
2022/08/18 01:26:23;;;;;;;;;;;;;;;;;;6095625;29;20406;-70
2022/08/18 01:29:26;;;;;;;19.17;14.15;;;;;;;;;;6096185;29;19927;-71
2022/08/18 01:32:28;;;;;;;18.58;14.68;;;;;;;;;;6097376;29;20084;-70
2022/08/18 01:35:30;;;;;;;20.90;14.05;;;;;;;;;;6095053;29;20100;-69
2022/08/18 01:38:33;;;;;;;19.15;12.93;;;;;;;;;;6102611;29;20052;-70
2022/08/18 01:41:34;;;;;;;18.70;12.90;;;;;;;;;;6096155;29;20079;-71
2022/08/18 01:44:36;;;;;;;16.70;12.20;;;;;;;;;;6092630;29;20063;-71
2022/08/18 01:47:39;;;;;;;15.35;11.13;;;;;;;;;;6094980;29;20329;-70
2022/08/18 01:50:42;;;;;;;12.40;8.98;;;;;;;;;;6104039;29;20103;-70
2022/08/18 01:53:47;;;;;;;12.20;8.35;;;;;;;;;;6126362;28;20054;-70
2022/08/18 01:56:52;;;;;;;11.93;8.30;;;;;;;;;;6156318;28;20066;-70
2022/08/18 01:59:54;;;;;;;10.82;7.88;;;;;;;;;;6148260;28;20051;-70
2022/08/18 02:02:56;;;;;;;12.18;7.47;;;;;;;;;;6148174;28;20043;-69
2022/08/18 02:06:01;;;;;;;12.02;7.25;;;;;;;;;;6148651;28;20298;-70
2022/08/18 02:09:04;;;;;;;12.68;7.45;;;;;;;;;;6149587;28;20051;-72
2022/08/18 02:12:06;;;;;;;;;;;;;;;;;;6148013;28;20051;-72
2022/08/18 02:15:08;;;;;;;8.18;5.70;;;;;;;;;;6152264;28;19922;-71
2022/08/18 02:18:14;;;;;;;9.98;5.63;;;;;;;;;;6146550;28;20055;-71
2022/08/18 02:21:17;;;;;;;9.10;5.50;;;;;;;;;;6144548;28;20055;-72
2022/08/18 02:24:20;;;;;;;10.30;5.97;;;;;;;;;;6145242;28;20047;-69
2022/08/18 02:27:22;;;;;;;10.23;6.60;;;;;;;;;;6139092;28;20057;-70
2022/08/18 02:30:24;;;;;;;12.27;5.85;;;;;;;;;;6140775;28;20091;-69
2022/08/18 02:33:25;;;;;;;9.25;5.65;;;;;;;;;;6142235;28;20129;-70
2022/08/18 02:36:27;;;;;;;9.98;5.53;;;;;;;;;;6146016;28;20102;-69
2022/08/18 02:39:30;;;;;;;11.30;5.10;;;;;;;;;;6151294;28;20102;-70
2022/08/18 02:42:32;;;;;;;8.73;5.70;;;;;;;;;;6148435;28;20224;-70
2022/08/18 02:45:33;;;;;;;11.27;5.88;;;;;;;;;;6147729;28;20050;-69
2022/08/18 02:48:35;;;;;;;7.70;5.10;;;;;;;;;;6144762;28;20047;-70
2022/08/18 02:51:37;;;;;;;10.55;5.72;;;;;;;;;;6142761;28;20051;-71
2022/08/18 02:54:40;;;;;;;6.78;5.20;;;;;;;;;;6145531;28;20047;-70
2022/08/18 02:57:43;;;;;;;6.72;5.10;;;;;;;;;;6143517;28;20059;-70
2022/08/18 03:00:45;;;;;;;8.87;5.23;;;;;;;;;;6146650;28;20055;-70
2022/08/18 03:03:46;;;;;;;8.13;5.35;;;;;;;;;;6145578;28;20537;-70
2022/08/18 03:06:48;;;;;;;9.82;5.22;;;;;;;;;;6144871;28;20047;-70
2022/08/18 03:09:51;;;;;;;6.57;4.68;;;;;;;;;;6147898;28;20114;-69
2022/08/18 03:12:53;;;;;;;8.52;5.10;;;;;;;;;;6147652;28;20059;-70
2022/08/18 03:15:54;;;;;;;10.27;6.25;;;;;;;;;;6146893;28;20059;-70
2022/08/18 03:18:56;;;;;;;9.18;5.35;;;;;;;;;;6146936;28;20055;-70
2022/08/18 03:21:58;;;;;;;6.10;4.82;;;;;;;;;;6146947;28;20243;-70
2022/08/18 03:25:01;;;;;;;8.23;5.47;;;;;;;;;;6146754;28;20059;-70
2022/08/18 03:28:03;;;;;;;11.88;5.10;;;;;;;;;;6154984;28;20051;-70
2022/08/18 03:31:05;;;;;;;7.22;4.85;;;;;;;;;;6159620;28;20070;-70
2022/08/18 03:34:08;;;;;;;6.97;4.90;;;;;;;;;;6158766;28;20067;-71
2022/08/18 03:37:10;;;;;;;8.35;5.03;;;;;;;;;;6156088;28;20051;-70
2022/08/18 03:40:13;;;;;;;8.40;4.93;;;;;;;;;;6154752;28;20098;-70
2022/08/18 03:43:15;;;;;;;7.47;5.15;;;;;;;;;;6157166;28;20080;-69
2022/08/18 03:46:18;;;;;;;8.48;5.03;;;;;;;;;;6161848;28;20094;-70
2022/08/18 03:49:20;;;;;;;7.13;5.05;;;;;;;;;;6160542;28;20053;-70
2022/08/18 03:52:22;;;;;;;7.70;4.80;;;;;;;;;;6157897;28;20078;-70
2022/08/18 03:55:26;;;;;;;9.02;5.20;;;;;;;;;;6158782;28;20055;-70
2022/08/18 03:58:28;;;;;;;7.45;5.50;;;;;;;;;;6152718;28;20067;-70
2022/08/18 04:01:32;;;;;;;7.32;4.55;;;;;;;;;;6147366;28;20050;-69
2022/08/18 04:04:34;;;;;;;8.07;4.25;;;;;;;;;;6148555;28;20101;-70
2022/08/18 04:07:35;;;;;;;7.63;3.85;;;;;;;;;;6150098;28;20342;-70
2022/08/18 04:10:39;;;;;;;4.35;3.72;;;;;;;;;;6149629;28;20299;-70
2022/08/18 04:13:40;;;;;;;5.30;3.45;;;;;;;;;;6152232;28;20062;-71
2022/08/18 04:16:42;;;;;;;5.00;3.70;;;;;;;;;;6149212;28;20048;-71
2022/08/18 04:19:44;;;;;;;6.97;3.60;;;;;;;;;;6148128;28;20051;-70
2022/08/18 04:22:45;;;;;;;8.40;3.45;;;;;;;;;;6145359;28;20091;-71
2022/08/18 04:25:57;;;;;;;7.72;4.18;;;;;;;;;;6147661;28;20063;-71
2022/08/18 04:29:00;;;;;;;5.50;3.60;;;;;;;;;;6148255;28;20054;-72
2022/08/18 04:32:03;;;;;;;7.32;3.78;;;;;;;;;;6149765;28;20118;-69
2022/08/18 04:35:06;;;;;;;7.82;4.05;;;;;;;;;;6148214;28;20047;-71
2022/08/18 04:38:08;;;;;;;6.88;4.28;;;;;;;;;;6150802;28;20046;-71
2022/08/18 04:41:12;;;;;;;5.78;3.92;;;;;;;;;;6150908;28;20107;-70
2022/08/18 04:44:16;;;;;;;5.57;3.83;;;;;;;;;;6148894;28;20052;-70
2022/08/18 04:47:19;;;;;;;6.30;3.75;;;;;;;;;;6149173;28;20055;-70
2022/08/18 04:50:20;;;;;;;9.38;4.57;;;;;;;;;;6145378;28;20339;-70
2022/08/18 04:56:43;;;;;;;10.25;4.40;;;;;;;;;;6148381;28;20047;-68
2022/08/18 04:59:46;;;;;;;10.95;4.47;;;;;;;;;;6147784;28;20055;-69
2022/08/18 05:02:48;;;;;;;9.38;5.00;;;;;;;;;;6151466;28;20095;-69
2022/08/18 05:05:49;;;;;;;9.57;4.93;;;;;;;;;;6146245;28;20055;-69
2022/08/18 05:08:52;;;;;;;7.57;5.10;;;;;;;;;;6148766;28;20243;-69
2022/08/18 05:11:55;;;;;;;13.17;5.60;;;;;;;;;;6146354;28;20054;-69
2022/08/18 05:14:56;;;;;;;7.85;4.82;;;;;;;;;;6149833;28;20059;-69
2022/08/18 05:17:58;;;;;;;8.13;4.60;;;;;;;;;;6146173;28;20063;-69
2022/08/18 05:21:00;;;;;;;7.32;4.88;;;;;;;;;;6146218;28;20047;-70
2022/08/18 05:24:02;;;;;;;7.63;5.00;;;;;;;;;;6144771;28;20055;-69
2022/08/18 05:27:06;;;;;;;16.58;5.82;;;;;;;;;;6148800;28;20099;-69
2022/08/18 05:30:09;;;;;;;15.80;6.53;;;;;;;;;;6145082;28;20110;-68
2022/08/18 05:33:10;;;;;;;10.80;6.43;;;;;;;;;;6146026;28;20059;-69
2022/08/18 05:36:25;;;;;;;21.65;8.10;;;;;;;;;;6146208;28;20054;-67
2022/08/18 05:39:30;;;;;;;23.80;8.10;;;;;;;;;;6146417;28;20051;-68
2022/08/18 05:42:38;;;;;;;15.70;8.60;;;;;;;;;;6149730;28;20047;-68
2022/08/18 05:45:42;;;;;;;30.00;10.85;;;;;;;;;;6146627;28;20052;-68
2022/08/18 05:48:45;;;;;;;20.42;10.80;;;;;;;;;;6144771;28;20059;-68
2022/08/18 05:51:48;;;;;;;21.63;11.80;;;;;;;;;;6148097;28;20091;-65
2022/08/18 05:58:16;;;;;;;28.17;13.75;;;;;;;;;;6149673;28;20055;-65
2022/08/18 06:01:26;;;;;;;26.65;13.55;;;;;;;;;;6146485;28;20058;-66
2022/08/18 06:04:36;;;;;;;25.90;13.82;;;;;;;;;;6151453;28;20051;-65
2022/08/18 06:07:43;;;;;;;24.10;13.32;;;;;;;;;;6154401;28;20048;-66
2022/08/18 06:10:48;;;;;;;21.67;12.50;;;;;;;;;;6155614;28;20246;-66
2022/08/18 06:13:51;;;;;;;25.17;13.65;;;;;;;;;;6162241;28;20055;-65
2022/08/18 06:16:58;;;;;;;22.58;13.85;;;;;;;;;;6148471;28;20107;-66
2022/08/18 06:20:04;;;;;;;23.88;14.23;;;;;;;;;;6144045;28;20162;-65
2022/08/18 06:23:20;;;;;;;25.00;14.40;;;;;;;;;;6146664;28;20059;-66
2022/08/18 06:26:26;;;;;;;29.38;14.18;;;;;;;;;;6149530;28;20051;-65
2022/08/18 06:29:48;;;;;;;27.75;14.18;;;;;;;;;;6148593;28;20103;-66
2022/08/18 06:33:00;;;;;;;23.20;14.27;;;;;;;;;;6146253;28;20053;-66
2022/08/18 06:36:04;;;;;;;21.42;14.02;;;;;;;;;;6145170;28;20154;-67
2022/08/18 06:39:12;;;;;;;27.00;14.05;;;;;;;;;;6149729;28;20047;-69
2022/08/18 06:42:17;;;;;;;27.25;14.40;;;;;;;;;;6147955;28;20063;-67
2022/08/18 06:45:24;;;;;;;24.25;13.85;;;;;;;;;;6148116;28;20055;-67
2022/08/18 06:48:32;;;;;;;23.83;13.73;;;;;;;;;;6148396;28;20059;-68
2022/08/18 06:51:34;;;;;;;22.80;13.43;;;;;;;;;;6146914;28;20040;-67
2022/08/18 06:54:42;;;;;;;18.92;12.32;;;;;;;;;;6146767;28;20330;-67
2022/08/18 06:57:56;;;;;;;20.65;11.63;;;;;;;;;;6144106;28;20058;-67
2022/08/18 07:01:01;;;;;;;17.95;11.38;;;;;;;;;;6149420;28;20054;-68
2022/08/18 07:04:03;;;;;;;14.90;10.10;;;;;;;;;;6155263;28;20051;-69
2022/08/18 07:07:20;;;;;;;13.75;10.88;;;;;;;;;;6151119;28;20122;-70
2022/08/18 07:10:32;;;;;;;15.93;9.45;;;;;;;;;;6151426;28;20090;-67
2022/08/18 07:13:39;;;;;;;19.75;10.07;;;;;;;;;;6152250;28;20063;-67
2022/08/18 07:16:42;;;;;;;15.57;9.60;;;;;;;;;;6152913;28;20102;-69
2022/08/18 07:19:43;;;;;;;14.45;9.07;;;;;;;;;;6151781;28;20055;-67
2022/08/18 07:22:52;;;;;;;14.45;8.60;;;;;;;;;;6151836;28;20118;-67
2022/08/18 07:26:03;;;;;;;14.40;8.77;;;;;;;;;;6151580;28;20066;-68
2022/08/18 07:29:14;;;;;;;13.93;8.38;;;;;;;;;;6150716;28;20055;-67
2022/08/18 07:32:19;;;;;;;13.25;9.20;;;;;;;;;;6150107;28;20403;-67
2022/08/18 07:35:24;;;;;;;12.50;8.27;;;;;;;;;;6149972;28;20063;-68
2022/08/18 07:38:31;;;;;;;11.55;7.88;;;;;;;;;;6150351;28;20362;-69
2022/08/18 07:41:36;;;;;;;12.73;8.30;;;;;;;;;;6151930;28;20047;-69
2022/08/18 07:44:43;;;;;;;11.45;7.93;;;;;;;;;;6151776;28;20051;-68
2022/08/18 07:47:51;;;;;;;12.05;7.38;;;;;;;;;;6149562;28;20456;-68
2022/08/18 07:50:58;;;;;;;12.50;7.28;;;;;;;;;;6149644;28;20051;-69
2022/08/18 07:54:07;;;;;;;13.13;8.75;;;;;;;;;;6149222;28;20063;-67
2022/08/18 07:57:14;;;;;;;10.07;7.35;;;;;;;;;;6149156;28;20063;-67
2022/08/18 08:00:21;;;;;;;13.50;8.15;;;;;;;;;;6151442;28;20051;-67
2022/08/18 08:03:31;;;;;;;13.60;7.57;;;;;;;;;;6151479;28;20235;-67
2022/08/18 08:06:39;;;;;;;12.13;8.65;;;;;;;;;;6152331;28;20063;-68
2022/08/18 08:09:56;;;;;;;9.15;7.47;;;;;;;;;;6151887;28;20102;-68
2022/08/18 08:13:07;;;;;;;12.68;8.65;;;;;;;;;;6149858;28;20055;-67
2022/08/18 08:16:16;;;;;;;12.27;8.40;;;;;;;;;;6151356;28;20090;-71
2022/08/18 08:19:42;;;;;;;14.43;8.77;;;;;;;;;;6148766;28;20059;-70
2022/08/18 08:22:58;;;;;;;13.63;8.40;;;;;;;;;;6149619;28;20054;-67
2022/08/18 08:26:16;;;;;;;16.02;9.40;;;;;;;;;;6148900;28;20054;-67
2022/08/18 08:29:27;;;;;;;17.98;9.32;;;;;;;;;;6149014;28;20051;-68
2022/08/18 08:32:32;;;;;;;12.23;9.55;;;;;;;;;;6149078;28;20094;-67
2022/08/18 08:35:39;;;;;;;14.75;10.20;;;;;;;;;;6147921;28;20118;-69
2022/08/18 08:38:44;;;;;;;15.88;10.27;;;;;;;;;;6147362;28;20060;-68
2022/08/18 08:41:50;;;;;;;16.98;10.50;;;;;;;;;;6149971;28;20271;-67
2022/08/18 08:44:58;;;;;;;27.42;12.45;;;;;;;;;;6148846;28;20107;-68
2022/08/18 08:48:03;;;;;;;20.23;11.93;;;;;;;;;;6147587;28;20059;-67
2022/08/18 08:51:24;;;;;;;23.50;13.13;;;;;;;;;;6150084;28;20051;-67
2022/08/18 08:54:30;;;;;;;21.63;13.07;;;;;;;;;;6149507;28;20126;-66
2022/08/18 08:57:37;;;;;;;21.70;14.80;;;;;;;;;;6147655;28;20062;-67
2022/08/18 09:00:39;;;;;;;27.73;15.20;;;;;;;;;;6147072;28;20055;-67
2022/08/18 09:03:45;;;;;;;20.67;14.50;;;;;;;;;;6148513;28;20062;-68
2022/08/18 09:06:54;;;;;;;24.15;14.70;;;;;;;;;;6149834;28;20055;-68
2022/08/18 09:10:20;;;;;;;26.00;15.95;;;;;;;;;;6152124;28;20280;-67
2022/08/18 09:13:43;;;;;;;30.95;18.50;;;;;;;;;;6150449;28;20110;-67
2022/08/18 09:16:53;;;;;;;27.27;17.58;;;;;;;;;;6148194;28;20098;-69
2022/08/18 09:20:03;;;;;;;28.80;16.98;;;;;;;;;;6146342;28;20095;-67
2022/08/18 09:23:08;;;;;;;33.53;18.05;;;;;;;;;;6148213;28;20058;-67
2022/08/18 09:26:25;;;;;;;32.88;17.50;;;;;;;;;;6144249;28;20149;-66
2022/08/18 09:29:47;;;;;;;33.47;19.02;;;;;;;;;;6150654;28;20062;-66
2022/08/18 09:33:09;;;;;;;31.88;18.33;;;;;;;;;;6147022;28;20051;-67
2022/08/18 09:36:22;;;;;;;32.53;16.77;;;;;;;;;;6144988;28;20058;-67
2022/08/18 09:42:51;;;;;;;31.42;16.50;;;;;;;;;;6144036;28;20048;-69
2022/08/18 09:45:56;;;;;;;30.42;17.80;;;;;;;;;;6150695;28;20055;-69
2022/08/18 09:49:38;;;;;;;35.08;18.00;;;;;;;;;;6148029;28;20334;-68
2022/08/18 09:52:48;;;;;;;34.92;17.52;;;;;;;;;;6146066;28;20047;-68
2022/08/18 09:55:57;;;;;;;28.63;17.13;;;;;;;;;;6146025;28;20110;-66
2022/08/18 09:59:01;;;;;;;31.65;16.98;;;;;;;;;;6147534;28;20066;-67
2022/08/18 10:02:05;;;;;;;32.70;17.17;;;;;;;;;;6146712;28;20050;-66
2022/08/18 10:05:26;;;;;;;36.42;16.83;;;;;;;;;;6144469;28;20327;-66
2022/08/18 10:09:04;;;;;;;30.13;18.25;;;;;;;;;;6148288;28;20066;-65
2022/08/18 10:12:25;;;;;;;36.42;18.42;;;;;;;;;;6149966;28;20047;-65
2022/08/18 10:15:40;;;;;;;45.53;20.48;;;;;;;;;;6152276;28;20102;-66
2022/08/18 10:18:57;;;;;;;44.90;22.70;;;;;;;;;;6147705;28;20061;-65
2022/08/18 10:22:06;;;;;;;59.50;23.65;;;;;;;;;;6150436;28;20063;-65
2022/08/18 10:25:10;;;;;;;61.95;25.98;;;;;;;;;;6149844;28;20044;-65
2022/08/18 10:28:33;;;;;;;;;;;;;;;;;;6151379;28;20051;-65
2022/08/18 10:32:36;;;;;;;52.28;22.90;;;;;;;;;;6145031;28;19918;-66
2022/08/18 10:35:57;;;;;;;54.30;23.75;;;;;;;;;;6148560;28;20059;-65
2022/08/18 10:38:58;;;;;;;50.35;23.90;;;;;;;;;;6150363;28;20066;-65
2022/08/18 10:42:05;;;;;;;52.35;23.80;;;;;;;;;;6148009;28;20051;-66
2022/08/18 10:45:14;;;;;;;59.75;23.98;;;;;;;;;;6149159;28;20060;-65
2022/08/18 10:48:19;;;;;;;42.53;21.20;;;;;;;;;;6149426;28;20098;-67
2022/08/18 10:51:35;;;;;;;47.88;21.00;;;;;;;;;;6151426;28;20063;-68
2022/08/18 10:54:48;;;;;;;43.05;20.85;;;;;;;;;;6151797;28;20078;-66
2022/08/18 10:58:06;;;;;;;70.22;21.88;;;;;;;;;;6152916;28;20057;-65
2022/08/18 11:01:31;;;;;;;47.28;21.17;;;;;;;;;;6151605;28;20059;-65
2022/08/18 11:04:36;;;;;;;35.55;18.58;;;;;;;;;;6155211;28;20055;-65
2022/08/18 11:07:42;;;;;;;92.95;22.10;;;;;;;;;;6153394;28;20286;-67
2022/08/18 11:10:49;;;;;;;53.22;20.48;;;;;;;;;;6151568;28;20082;-67
2022/08/18 11:13:59;;;;;;;43.38;19.98;;;;;;;;;;6155937;28;20055;-66
2022/08/18 11:17:08;;;;;;;63.30;21.58;;;;;;;;;;6152850;28;20059;-67
2022/08/18 11:20:14;;;;;;;45.22;19.92;;;;;;;;;;6151547;28;20282;-67
2022/08/18 11:23:17;;;;;;;51.65;20.48;;;;;;;;;;6152671;28;20367;-67
2022/08/18 11:26:18;;;;;;;48.17;20.13;;;;;;;;;;6157061;28;20047;-67
2022/08/18 11:29:28;;;;;;;52.25;19.33;;;;;;;;;;6160888;28;20064;-67
2022/08/18 11:32:33;;;;;;;46.05;17.13;;;;;;;;;;6161627;28;20047;-67
2022/08/18 11:35:46;;;;;;;38.83;16.65;;;;;;;;;;6163328;28;20094;-67
2022/08/18 11:38:54;;;;;;;32.15;13.77;;;;;;;;;;6164142;28;20059;-67
2022/08/18 11:41:56;;;;;;;34.53;12.40;;;;;;;;;;6165882;28;20114;-67
2022/08/18 11:45:04;;;;;;;27.30;12.48;;;;;;;;;;6163248;28;20110;-67
2022/08/18 11:48:20;;;;;;;30.23;12.57;;;;;;;;;;6159665;28;20039;-67
2022/08/18 11:51:23;;;;;;;35.50;13.38;;;;;;;;;;6156998;28;20101;-67
2022/08/18 11:54:35;;;;;;;30.95;14.18;;;;;;;;;;6160803;28;20238;-67
2022/08/18 11:57:41;;;;;;;24.52;13.07;;;;;;;;;;6158962;28;20047;-67
2022/08/18 12:00:57;;;;;;;27.75;12.90;;;;;;;;;;6152740;28;20054;-67
2022/08/18 12:04:15;;;;;;;25.88;12.98;;;;;;;;;;6146515;28;20242;-67
2022/08/18 12:07:18;;;;;;;21.45;11.77;;;;;;;;;;6148388;28;20078;-67
2022/08/18 12:10:23;;;;;;;19.92;11.23;;;;;;;;;;6149000;28;20051;-67
2022/08/18 12:13:25;;;;;;;16.95;9.23;;;;;;;;;;6149549;28;20047;-67
2022/08/18 12:16:37;;;;;;;17.67;10.07;;;;;;;;;;6147281;28;20238;-67
2022/08/18 12:19:40;;;;;;;18.20;10.77;;;;;;;;;;6147190;28;20380;-67
2022/08/18 12:22:43;;;;;;;18.92;9.85;;;;;;;;;;6147326;28;20051;-67
2022/08/18 12:25:45;;;;;;;13.73;9.60;;;;;;;;;;6147535;28;20059;-67
2022/08/18 12:28:47;;;;;;;13.63;8.88;;;;;;;;;;6149123;28;20115;-69
2022/08/18 12:31:50;;;;;;;11.90;8.27;;;;;;;;;;6150894;28;20223;-67
2022/08/18 12:34:53;;;;;;;11.98;8.77;;;;;;;;;;6146198;28;20062;-67
2022/08/18 12:37:55;;;;;;;11.20;7.82;;;;;;;;;;6147122;28;20098;-67
2022/08/18 12:40:57;;;;;;;8.57;6.07;;;;;;;;;;6152241;28;20230;-67
2022/08/18 12:43:59;;;;;;;5.95;5.03;;;;;;;;;;6147982;28;20115;-67
2022/08/18 12:47:01;;;;;;;4.57;4.13;;;;;;;;;;6148722;28;21263;-70
2022/08/18 12:50:04;;;;;;;5.03;4.53;;;;;;;;;;6148753;28;20059;-70
2022/08/18 12:53:06;;;;;;;6.55;4.72;;;;;;;;;;6149397;28;20306;-70
2022/08/18 12:56:12;;;;;;;6.85;4.88;;;;;;;;;;6150994;28;20059;-70
2022/08/18 12:59:14;;;;;;;6.68;4.97;;;;;;;;;;6145493;28;20051;-72
2022/08/18 13:02:16;;;;;;;7.13;4.97;;;;;;;;;;6147052;28;20103;-72
2022/08/18 13:05:19;;;;;;;6.25;4.45;;;;;;;;;;6149578;28;20105;-72
2022/08/18 13:08:22;;;;;;;6.78;5.05;;;;;;;;;;6149690;28;20051;-72
2022/08/18 13:11:24;;;;;;;5.88;4.55;;;;;;;;;;6148452;28;20050;-72
2022/08/18 13:14:25;;;;;;;4.72;3.70;;;;;;;;;;6152631;28;20098;-72
2022/08/18 13:17:27;;;;;;;3.63;3.33;;;;;;;;;;6148321;28;20055;-72
2022/08/18 13:20:30;;;;;;;4.75;4.03;;;;;;;;;;6151898;28;20282;-72
2022/08/18 13:23:31;;;;;;;6.32;4.13;;;;;;;;;;6147148;28;20051;-72
2022/08/18 13:26:35;;;;;;;6.03;3.85;;;;;;;;;;6149839;28;20043;-72
2022/08/18 13:29:37;;;;;;;6.75;3.97;;;;;;;;;;6149709;28;20051;-72
2022/08/18 13:32:39;;;;;;;6.00;3.85;;;;;;;;;;6148943;28;20055;-72
2022/08/18 13:35:42;;;;;;;6.72;5.40;;;;;;;;;;6149338;28;20058;-72
2022/08/18 13:38:44;;;;;;;;;;;;;;;;;;6151552;28;20294;-73
2022/08/18 13:41:47;;;;;;;5.32;3.97;;;;;;;;;;6149904;28;19922;-73
2022/08/18 13:44:49;;;;;;;5.97;3.50;;;;;;;;;;6150192;28;20222;-72
2022/08/18 13:47:50;;;;;;;10.95;3.30;;;;;;;;;;6151946;28;20059;-72
2022/08/18 13:50:54;;;;;;;6.38;3.33;;;;;;;;;;6154153;28;20055;-72
2022/08/18 13:53:56;;;;;;;4.05;3.05;;;;;;;;;;6150237;28;20048;-73
2022/08/18 13:56:59;;;;;;;9.35;2.90;;;;;;;;;;6144701;28;20054;-72
2022/08/18 14:00:00;;;;;;;4.60;2.65;;;;;;;;;;6149654;28;20097;-71
2022/08/18 14:03:02;;;;;;;5.03;2.63;;;;;;;;;;6146100;28;20056;-72
2022/08/18 14:06:06;;;;;;;5.05;2.88;;;;;;;;;;6146906;28;20098;-71
2022/08/18 14:09:07;;;;;;;4.18;2.50;;;;;;;;;;6146886;28;20062;-71
2022/08/18 14:12:16;;;;;;;4.15;2.67;;;;;;;;;;6149607;28;20059;-72
2022/08/18 14:15:17;;;;;;;4.57;2.47;;;;;;;;;;6150977;28;20059;-72
2022/08/18 14:18:19;;;;;;;2.95;2.28;;;;;;;;;;6144228;28;20069;-71
2022/08/18 14:28:01;;;;;;;6.78;2.92;;;;;;;;;;6145332;28;20059;-71
2022/08/18 14:31:03;;;;;;;4.15;2.92;;;;;;;;;;6146573;28;20398;-72
2022/08/18 14:34:05;;;;;;;5.60;3.30;;;;;;;;;;6150909;28;20258;-72
2022/08/18 14:37:08;;;;;;;5.57;3.05;;;;;;;;;;6152179;28;20062;-71
2022/08/18 14:40:10;;;;;;;;;;;;;;;;;;6157329;28;20062;-71
2022/08/18 14:43:12;;;;;;;4.95;3.00;;;;;;;;;;6152553;28;19922;-71
2022/08/18 14:46:14;;;;;;;5.83;2.70;;;;;;;;;;6147056;28;20047;-71
2022/08/18 14:49:15;;;;;;;8.00;2.80;;;;;;;;;;6147007;28;20495;-71
2022/08/18 14:52:18;;;;;;;4.10;2.20;;;;;;;;;;6148230;28;20047;-71
2022/08/18 14:55:20;;;;;;;6.03;2.30;;;;;;;;;;6151054;28;20063;-71
2022/08/18 14:58:27;;;;;;;5.35;2.05;;;;;;;;;;6149746;28;20046;-71
2022/08/18 15:01:30;;;;;;;5.55;1.83;;;;;;;;;;6144960;28;20317;-71
2022/08/18 15:04:32;;;;;;;6.57;1.75;;;;;;;;;;6148255;28;20362;-71
2022/08/18 15:07:36;;;;;;;4.97;1.95;;;;;;;;;;6143298;28;20055;-71
2022/08/18 15:10:38;;;;;;;2.20;1.40;;;;;;;;;;6149383;28;20063;-71
2022/08/18 15:13:42;;;;;;;4.03;1.33;;;;;;;;;;6145910;28;20055;-71
2022/08/18 15:16:44;;;;;;;2.08;1.00;;;;;;;;;;6147881;28;20102;-71
2022/08/18 15:19:46;;;;;;;2.95;1.13;;;;;;;;;;6146957;28;20326;-71
2022/08/18 15:26:09;;;;;;;2.08;0.88;;;;;;;;;;6152742;28;20130;-71
2022/08/18 15:29:11;;;;;;;5.10;1.00;;;;;;;;;;6151559;28;20058;-71
2022/08/18 15:32:14;;;;;;;1.67;0.80;;;;;;;;;;6151869;28;20070;-71
2022/08/18 15:35:16;;;;;;;1.85;0.80;;;;;;;;;;6152368;28;20062;-71
2022/08/18 15:38:20;;;;;;;2.97;1.15;;;;;;;;;;6149793;28;20066;-71
2022/08/18 15:41:31;;;;;;;2.97;1.10;;;;;;;;;;6153979;28;20330;-71
2022/08/18 15:44:33;;;;;;;3.90;1.05;;;;;;;;;;6150123;28;20051;-71
2022/08/18 15:47:35;;;;;;;5.80;2.00;;;;;;;;;;6150101;28;20051;-71
2022/08/18 15:50:36;;;;;;;3.00;1.30;;;;;;;;;;6149218;28;20044;-71
2022/08/18 15:53:40;;;;;;;2.55;1.40;;;;;;;;;;6149438;28;20052;-71
2022/08/18 15:56:41;;;;;;;2.97;1.38;;;;;;;;;;6151515;28;20051;-71
2022/08/18 15:59:43;;;;;;;2.28;1.40;;;;;;;;;;6146082;28;20066;-72
2022/08/18 16:02:50;;;;;;;3.05;1.23;;;;;;;;;;6151225;28;20089;-71
2022/08/18 16:05:54;;;;;;;2.90;1.20;;;;;;;;;;6149820;28;20048;-71
2022/08/18 16:08:57;;;;;;;2.53;1.10;;;;;;;;;;6150620;28;20051;-71
2022/08/18 16:11:59;;;;;;;2.17;1.00;;;;;;;;;;6152731;28;20062;-71
2022/08/18 16:15:02;;;;;;;3.50;1.30;;;;;;;;;;6150970;28;20297;-71
2022/08/18 16:18:05;;;;;;;4.00;1.23;;;;;;;;;;6148830;28;20043;-71
2022/08/18 16:21:10;;;;;;;1.75;0.88;;;;;;;;;;6147062;28;20144;-71
2022/08/18 16:24:13;;;;;;;2.28;1.10;;;;;;;;;;6149087;28;20059;-71
2022/08/18 16:27:15;;;;;;;;;;;;;;;;;;6150514;28;20270;-71
2022/08/18 16:30:19;;;;;;;2.63;1.00;;;;;;;;;;6146768;28;19918;-72
2022/08/18 16:33:20;;;;;;;2.03;1.35;;;;;;;;;;6143724;28;20047;-72
2022/08/18 16:36:24;;;;;;;2.05;1.10;;;;;;;;;;6148077;28;20291;-71
2022/08/18 16:39:27;;;;;;;4.35;1.58;;;;;;;;;;6148000;28;20069;-71
2022/08/18 16:42:31;;;;;;;2.03;1.10;;;;;;;;;;6147564;28;20254;-70
2022/08/18 16:45:34;;;;;;;3.70;1.30;;;;;;;;;;6150059;28;20052;-70
2022/08/18 16:48:36;;;;;;;2.25;1.27;;;;;;;;;;6147931;28;20138;-70
2022/08/18 16:51:38;;;;;;;3.80;1.15;;;;;;;;;;6147040;28;20047;-71
2022/08/18 16:54:41;;;;;;;3.90;1.20;;;;;;;;;;6149055;28;20059;-71
2022/08/18 17:04:24;;;;;;;2.35;1.10;;;;;;;;;;6148361;28;20393;-70
2022/08/18 17:07:26;;;;;;;2.85;1.52;;;;;;;;;;6146715;28;20058;-70
2022/08/18 17:10:36;;;;;;;3.88;1.45;;;;;;;;;;6148116;28;20242;-70
2022/08/18 17:13:38;;;;;;;2.53;0.98;;;;;;;;;;6147670;28;20043;-70
2022/08/18 17:16:41;;;;;;;3.07;1.33;;;;;;;;;;6148201;28;20055;-70
2022/08/18 17:19:42;;;;;;;2.70;1.20;;;;;;;;;;6144568;28;20482;-71
2022/08/18 17:22:44;;;;;;;2.60;0.90;;;;;;;;;;6147802;28;20047;-69
2022/08/18 17:25:47;;;;;;;3.15;1.33;;;;;;;;;;6145887;28;20051;-68
2022/08/18 17:28:52;;;;;;;2.17;1.10;;;;;;;;;;6149916;28;20066;-68
2022/08/18 17:31:56;;;;;;;1.80;1.10;;;;;;;;;;6144979;28;20065;-68
2022/08/18 17:35:02;;;;;;;2.97;1.13;;;;;;;;;;6149886;28;20357;-69
2022/08/18 17:38:08;;;;;;;2.17;1.30;;;;;;;;;;6148331;28;20075;-69
2022/08/18 17:41:12;;;;;;;3.30;1.27;;;;;;;;;;6147634;28;20103;-69
2022/08/18 17:44:14;;;;;;;4.85;1.40;;;;;;;;;;6146973;28;20054;-69
2022/08/18 17:47:19;;;;;;;4.50;1.25;;;;;;;;;;6148883;28;20051;-69
2022/08/18 17:53:46;;;;;;;3.97;1.23;;;;;;;;;;6147585;28;20067;-69
2022/08/18 17:56:51;;;;;;;3.15;1.40;;;;;;;;;;6145844;28;20047;-67
2022/08/18 17:59:58;;;;;;;2.97;1.50;;;;;;;;;;6144451;28;20111;-70
2022/08/18 18:03:00;;;;;;;2.20;1.45;;;;;;;;;;6148936;28;20047;-71
2022/08/18 18:06:07;;;;;;;4.90;1.20;;;;;;;;;;6147659;28;20406;-70
2022/08/18 18:09:11;;;;;;;1.63;1.17;;;;;;;;;;6150101;28;20047;-70
2022/08/18 18:12:22;;;;;;;3.88;1.73;;;;;;;;;;6148977;28;20063;-70
2022/08/18 18:15:30;;;;;;;2.63;1.27;;;;;;;;;;6149547;28;20064;-68
2022/08/18 18:18:35;;;;;;;2.75;1.40;;;;;;;;;;6145744;28;20124;-71
2022/08/18 18:21:37;;;;;;;3.53;1.70;;;;;;;;;;6143275;28;20055;-68
2022/08/18 18:24:39;;;;;;;4.40;1.50;;;;;;;;;;6143509;28;21057;-68
2022/08/18 18:27:44;;;;;;;3.72;1.55;;;;;;;;;;6145499;28;20055;-68
2022/08/18 18:30:45;;;;;;;2.03;1.30;;;;;;;;;;6143397;28;20051;-68
2022/08/18 18:33:55;;;;;;;2.88;1.40;;;;;;;;;;6145284;28;20087;-68
2022/08/18 18:36:58;;;;;;;3.83;1.63;;;;;;;;;;6143723;28;20282;-68
2022/08/18 18:40:01;;;;;;;3.78;1.52;;;;;;;;;;6143096;28;20318;-70
2022/08/18 18:43:22;;;;;;;4.80;1.67;;;;;;;;;;6143890;28;20055;-70
2022/08/18 18:46:30;;;;;;;3.42;1.40;;;;;;;;;;6145358;28;20047;-68
2022/08/18 18:49:39;;;;;;;4.43;1.40;;;;;;;;;;6150339;28;20102;-67
2022/08/18 18:52:44;;;;;;;3.17;1.23;;;;;;;;;;6151340;28;20557;-67
2022/08/18 18:55:50;;;;;;;4.88;1.40;;;;;;;;;;6147138;28;20047;-68